Time;durP1;ratioP1;P1;durP2;ratioP2;P2;SDS_P1;SDS_P2;PMS_P1;PMS_P2;Temp;Humidity;BMP_temperature;BMP_pressure;BME280_temperature;BME280_humidity;BME280_pressure;Samples;Min_cycle;Max_cycle;Signal;HPM_P1;HPM_P2
2022/07/16 00:02:14;;;;;;;1.50;0.47;;;;;;;18.71;52.25;101598.94;4985389;28;96969;-50
2022/07/16 00:04:40;;;;;;;0.60;0.40;;;;;;;18.72;52.54;101600.44;4985318;28;97831;-50
2022/07/16 00:07:05;;;;;;;0.70;0.50;;;;;;;18.74;52.20;101597.84;4984168;28;96967;-49
2022/07/16 00:09:30;;;;;;;0.80;0.50;;;;;;;18.73;52.26;101593.59;4985943;28;97387;-51
2022/07/16 00:11:56;;;;;;;0.90;0.50;;;;;;;18.71;52.41;101590.56;4985811;28;96813;-49
2022/07/16 00:14:21;;;;;;;0.60;0.40;;;;;;;18.72;52.33;101589.28;4985610;28;97322;-50
2022/07/16 00:16:46;;;;;;;0.80;0.40;;;;;;;18.73;52.02;101599.16;4985097;28;97099;-53
2022/07/16 00:19:23;;;;;;;0.77;0.60;;;;;;;18.77;51.93;101594.03;4983752;28;97689;-50
2022/07/16 00:21:52;;;;;;;0.50;0.50;;;;;;;18.81;51.84;101594.47;4983775;28;96864;-52
2022/07/16 00:24:17;;;;;;;0.60;0.50;;;;;;;18.86;51.54;101590.88;4980984;28;97322;-50
2022/07/16 00:26:43;;;;;;;1.90;0.47;;;;;;;18.91;51.47;101589.28;4984805;28;97137;-49
2022/07/16 00:29:09;;;;;;;1.60;0.50;;;;;;;18.93;51.39;101587.50;4985323;28;96750;-49
2022/07/16 00:31:35;;;;;;;0.90;0.37;;;;;;;18.98;51.23;101586.63;4986609;28;96966;-50
2022/07/16 00:34:04;;;;;;;0.70;0.50;;;;;;;19.04;51.08;101581.75;4985586;28;97603;-50
2022/07/16 00:36:29;;;;;;;0.80;0.40;;;;;;;19.08;50.82;101581.44;4982411;28;97914;-50
2022/07/16 00:38:54;;;;;;;0.70;0.40;;;;;;;19.11;51.00;101586.72;4984966;28;97435;-51
2022/07/16 00:41:19;;;;;;;2.23;0.60;;;;;;;19.12;50.76;101581.88;4988265;28;97024;-49
2022/07/16 00:43:47;;;;;;;0.60;0.50;;;;;;;19.14;50.65;101585.66;4990417;28;97764;-50
2022/07/16 00:46:14;;;;;;;0.70;0.43;;;;;;;19.17;50.69;101584.59;4987435;28;97105;-51
2022/07/16 00:48:40;;;;;;;1.77;0.57;;;;;;;19.20;50.67;101591.91;4989726;28;97562;-50
2022/07/16 00:51:06;;;;;;;1.87;0.83;;;;;;;19.24;50.53;101575.59;4988255;28;97386;-49
2022/07/16 00:53:34;;;;;;;3.13;0.50;;;;;;;19.26;50.46;101584.19;4988173;28;96871;-50
2022/07/16 00:55:59;;;;;;;2.10;0.50;;;;;;;19.28;50.25;101581.66;4986850;28;100111;-51
2022/07/16 00:58:25;;;;;;;0.80;0.60;;;;;;;19.30;50.25;101587.44;4988770;28;96772;-49
2022/07/16 01:00:50;;;;;;;0.70;0.50;;;;;;;19.30;50.32;101579.09;4987454;28;97276;-50
2022/07/16 01:03:15;;;;;;;1.00;0.80;;;;;;;19.33;50.42;101574.47;4986508;28;97283;-51
2022/07/16 01:05:41;;;;;;;1.63;0.43;;;;;;;19.34;50.21;101578.75;4988572;28;97106;-50
2022/07/16 01:08:07;;;;;;;2.00;0.50;;;;;;;19.37;50.20;101574.94;4988814;28;96823;-49
2022/07/16 01:10:32;;;;;;;0.60;0.60;;;;;;;19.38;50.16;101563.25;4988321;28;96836;-51
2022/07/16 01:13:02;;;;;;;0.60;0.50;;;;;;;19.40;50.05;101566.25;4988458;28;97697;-50
2022/07/16 01:15:27;;;;;;;2.40;0.90;;;;;;;19.41;50.29;101559.41;4988312;28;97237;-50
2022/07/16 01:17:53;;;;;;;1.80;0.67;;;;;;;19.42;50.22;101563.69;4988137;28;97212;-51
2022/07/16 01:20:19;;;;;;;1.77;0.70;;;;;;;19.42;50.28;101558.09;4988306;28;97238;-50
2022/07/16 01:22:46;;;;;;;0.60;0.60;;;;;;;19.43;50.22;101548.47;4988653;28;97199;-50
2022/07/16 01:25:11;;;;;;;1.57;0.63;;;;;;;19.43;50.19;101559.63;4988231;28;97323;-51
2022/07/16 01:27:38;;;;;;;1.33;0.70;;;;;;;19.46;50.42;101559.84;4987454;28;96930;-50
2022/07/16 01:30:08;;;;;;;0.93;0.77;;;;;;;19.48;50.46;101546.84;4986053;28;97148;-51
2022/07/16 01:32:33;;;;;;;0.63;0.63;;;;;;;19.50;50.53;101551.91;4988313;28;97343;-50
2022/07/16 01:34:58;;;;;;;1.80;0.83;;;;;;;19.51;50.36;101548.56;4987381;28;101567;-51
2022/07/16 01:37:24;;;;;;;0.93;0.67;;;;;;;19.52;50.43;101541.72;4987313;28;96694;-51
2022/07/16 01:39:49;;;;;;;0.97;0.60;;;;;;;19.55;50.50;101537.09;4986659;28;97166;-50
2022/07/16 01:42:14;;;;;;;0.70;0.70;;;;;;;19.55;50.21;101531.53;4986403;28;97094;-50
2022/07/16 01:44:40;;;;;;;1.57;0.87;;;;;;;19.55;50.28;101531.53;4987358;28;96838;-50
2022/07/16 01:47:06;;;;;;;1.53;0.80;;;;;;;19.56;50.36;101539.34;4985195;28;97500;-50
2022/07/16 01:49:35;;;;;;;0.80;0.80;;;;;;;19.57;50.38;101538.06;4986275;28;97056;-50
2022/07/16 01:52:18;;;;;;;2.00;0.80;;;;;;;19.57;50.25;101537.31;4985268;28;97741;-50
2022/07/16 01:54:49;;;;;;;0.70;0.70;;;;;;;19.55;50.42;101535.03;4986171;28;97359;-50
2022/07/16 01:57:15;;;;;;;0.80;0.80;;;;;;;19.56;50.47;101541.38;4987434;28;97185;-50
2022/07/16 01:59:41;;;;;;;0.70;0.60;;;;;;;19.55;50.30;101537.09;4988128;28;97305;-50
2022/07/16 02:02:07;;;;;;;1.43;0.80;;;;;;;19.54;50.52;101527.22;4986652;28;97246;-50
2022/07/16 02:04:34;;;;;;;1.57;0.83;;;;;;;19.52;50.42;101530.53;4987864;28;97030;-49
2022/07/16 02:06:59;;;;;;;2.23;0.73;;;;;;;19.50;50.60;101529.56;4987935;28;97149;-50
2022/07/16 02:09:24;;;;;;;0.70;0.70;;;;;;;19.49;50.32;101528.81;4986876;28;97430;-50
2022/07/16 02:11:50;;;;;;;0.80;0.70;;;;;;;19.49;50.47;101531.59;4987374;28;97294;-50
2022/07/16 02:14:15;;;;;;;0.80;0.60;;;;;;;19.48;50.50;101524.53;4987703;28;97053;-51
2022/07/16 02:16:40;;;;;;;0.80;0.70;;;;;;;19.49;50.71;101537.19;4988013;28;97211;-51
2022/07/16 02:19:06;;;;;;;1.67;0.77;;;;;;;19.49;50.53;101531.59;4986933;28;96952;-50
2022/07/16 02:21:32;;;;;;;1.37;0.97;;;;;;;19.51;50.49;101522.69;4986485;28;97001;-50
2022/07/16 02:23:58;;;;;;;1.30;0.80;;;;;;;19.53;50.33;101522.94;4986267;28;97226;-50
2022/07/16 02:26:23;;;;;;;0.80;0.80;;;;;;;19.53;50.48;101523.66;4987307;28;96974;-49
2022/07/16 02:28:49;;;;;;;1.40;0.83;;;;;;;19.53;50.50;101520.13;4986845;28;97267;-49
2022/07/16 02:31:14;;;;;;;0.80;0.67;;;;;;;19.54;50.49;101519.59;4996381;22;97038;-48
2022/07/16 02:33:39;;;;;;;1.53;0.90;;;;;;;19.56;50.39;101521.84;4940376;28;97659;-49
2022/07/16 02:36:05;;;;;;;1.10;1.00;;;;;;;19.56;50.33;101514.22;4937491;28;97418;-49
2022/07/16 02:38:31;;;;;;;2.53;0.77;;;;;;;19.57;50.45;101512.94;4935902;28;96665;-52
2022/07/16 02:40:56;;;;;;;1.10;0.77;;;;;;;19.57;50.55;101512.94;4937906;28;97250;-49
2022/07/16 02:43:21;;;;;;;1.03;0.93;;;;;;;19.57;50.32;101509.41;4933225;28;97127;-49
2022/07/16 02:45:47;;;;;;;1.53;0.90;;;;;;;19.56;50.62;101516.25;4934504;28;97200;-49
2022/07/16 02:48:12;;;;;;;1.63;1.00;;;;;;;19.57;50.59;101509.41;4937309;28;97190;-49
2022/07/16 02:50:38;;;;;;;0.80;0.80;;;;;;;19.58;50.39;101511.66;4942793;28;97297;-49
2022/07/16 02:53:04;;;;;;;1.33;0.90;;;;;;;19.57;50.39;101498.25;4940408;28;96946;-49
2022/07/16 02:55:30;;;;;;;1.37;1.13;;;;;;;19.59;50.42;101506.84;4941332;28;97342;-49
2022/07/16 02:57:55;;;;;;;1.10;1.00;;;;;;;19.59;50.50;101509.63;4939921;28;97480;-49
2022/07/16 03:00:21;;;;;;;1.27;0.97;;;;;;;19.60;50.44;101511.13;4939492;28;96871;-50
2022/07/16 03:02:47;;;;;;;4.00;1.00;;;;;;;19.60;50.49;101502.72;4938297;28;97203;-49
2022/07/16 03:05:13;;;;;;;1.30;1.10;;;;;;;19.60;50.69;101500.69;4940877;28;97113;-49
2022/07/16 03:07:39;;;;;;;2.07;0.90;;;;;;;19.60;50.48;101511.88;4941389;28;97084;-50
2022/07/16 03:10:07;;;;;;;3.50;1.10;;;;;;;19.60;50.65;101499.94;4937205;28;98595;-50
2022/07/16 03:12:32;;;;;;;0.90;0.90;;;;;;;19.60;50.46;101502.72;4937834;28;97024;-50
2022/07/16 03:14:58;;;;;;;1.00;1.00;;;;;;;19.61;50.71;101504.25;4944782;28;97330;-49
2022/07/16 03:17:24;;;;;;;2.40;0.80;;;;;;;19.57;50.66;101506.63;4942527;28;97023;-49
2022/07/16 03:19:49;;;;;;;5.13;1.07;;;;;;;19.54;50.80;101516.03;4936567;28;97101;-49
2022/07/16 03:22:16;;;;;;;2.20;1.07;;;;;;;19.52;51.09;101519.38;4941044;28;97337;-50
2022/07/16 03:24:41;;;;;;;2.17;0.97;;;;;;;19.49;51.36;101519.69;4937188;28;97555;-51
2022/07/16 03:27:07;;;;;;;2.60;1.10;;;;;;;19.48;51.47;101523.78;4939421;28;97251;-49
2022/07/16 03:29:32;;;;;;;1.93;0.87;;;;;;;19.39;52.12;101531.28;4939098;28;97337;-50
2022/07/16 03:31:57;;;;;;;1.80;1.07;;;;;;;19.36;52.45;101526.00;4939130;28;98438;-49
2022/07/16 03:34:23;;;;;;;2.37;0.90;;;;;;;19.34;52.49;101528.53;4943842;28;97341;-49
2022/07/16 03:36:48;;;;;;;1.83;1.20;;;;;;;19.30;52.57;101528.84;4932770;28;96964;-50
2022/07/16 03:39:14;;;;;;;0.70;0.67;;;;;;;19.25;52.85;101526.91;4938781;28;97745;-49
2022/07/16 03:41:39;;;;;;;0.73;0.73;;;;;;;19.21;53.14;101529.25;4934358;28;97164;-49
2022/07/16 03:44:08;;;;;;;1.80;1.10;;;;;;;19.17;53.43;101531.59;4932912;28;96899;-49
2022/07/16 03:46:35;;;;;;;1.33;1.17;;;;;;;19.11;53.21;101538.56;4935663;28;97339;-49
2022/07/16 03:49:00;;;;;;;1.43;0.97;;;;;;;19.07;53.52;101538.06;4931724;28;97966;-49
2022/07/16 03:51:26;;;;;;;1.17;1.07;;;;;;;19.04;53.75;101536.38;4934817;28;97576;-49
2022/07/16 03:53:52;;;;;;;1.13;1.03;;;;;;;19.01;53.71;101532.59;4938258;28;97210;-49
2022/07/16 03:56:17;;;;;;;1.17;0.90;;;;;;;19.00;53.96;101545.03;4937813;28;97013;-50
2022/07/16 03:58:43;;;;;;;3.87;1.33;;;;;;;18.96;54.19;101541.06;4926423;28;97513;-50
2022/07/16 04:01:08;;;;;;;1.20;1.10;;;;;;;18.94;54.11;101549.94;4932668;28;97387;-49
2022/07/16 04:03:35;;;;;;;0.90;0.90;;;;;;;18.91;54.48;101534.28;4934759;28;98474;-49
2022/07/16 04:06:00;;;;;;;2.10;1.90;;;;;;;18.91;54.48;101555.81;4932258;28;97436;-49
2022/07/16 04:08:25;;;;;;;1.20;1.10;;;;;;;18.88;54.68;101543.69;4937463;28;97251;-49
2022/07/16 04:10:51;;;;;;;1.00;0.70;;;;;;;18.88;54.65;101548.50;4934733;28;107294;-50
2022/07/16 04:13:17;;;;;;;1.43;0.97;;;;;;;18.86;54.93;101551.06;4939211;28;96944;-49
2022/07/16 04:15:42;;;;;;;1.23;1.13;;;;;;;18.84;54.88;101557.19;4941833;28;97186;-50
2022/07/16 04:18:08;;;;;;;0.97;0.97;;;;;;;18.83;55.14;101552.88;4937499;28;96709;-50
2022/07/16 04:20:33;;;;;;;2.00;1.47;;;;;;;18.83;55.37;101549.38;4937097;28;97519;-50
2022/07/16 04:22:59;;;;;;;3.00;1.10;;;;;;;18.84;55.22;101565.56;4931295;28;97083;-49
2022/07/16 04:25:24;;;;;;;1.33;1.07;;;;;;;18.83;55.11;101558.47;4933116;28;98152;-49
2022/07/16 04:27:49;;;;;;;2.10;1.27;;;;;;;18.83;55.27;101560.50;4936322;28;97547;-47
2022/07/16 04:30:15;;;;;;;1.30;1.20;;;;;;;18.85;55.22;101555.16;4936785;28;106689;-49
2022/07/16 04:32:41;;;;;;;1.17;0.93;;;;;;;18.86;55.36;101563.00;4939124;28;97160;-49
2022/07/16 04:35:09;;;;;;;2.17;1.30;;;;;;;18.84;55.58;101571.13;4941414;28;96912;-48
2022/07/16 04:37:35;;;;;;;1.50;1.07;;;;;;;18.85;55.71;101578.19;4939879;28;96825;-49
2022/07/16 04:40:01;;;;;;;1.50;1.17;;;;;;;18.86;55.78;101574.16;4937837;28;97577;-48
2022/07/16 04:42:26;;;;;;;1.13;1.13;;;;;;;18.88;55.80;101577.16;4933352;28;97487;-49
2022/07/16 04:44:52;;;;;;;1.77;1.20;;;;;;;18.89;55.87;101570.31;4937548;28;97020;-51
2022/07/16 04:47:17;;;;;;;2.00;1.33;;;;;;;18.88;55.94;101577.16;4938204;28;97070;-48
2022/07/16 04:49:42;;;;;;;3.53;1.40;;;;;;;18.92;55.91;101577.59;4933414;28;102738;-50
2022/07/16 04:52:08;;;;;;;0.90;0.90;;;;;;;18.92;56.19;101577.59;4937927;28;97281;-50
2022/07/16 04:54:33;;;;;;;0.97;0.97;;;;;;;18.93;56.08;101579.13;4935743;28;96826;-50
2022/07/16 04:56:59;;;;;;;0.90;0.90;;;;;;;18.95;56.26;101576.56;4938967;28;97467;-50
2022/07/16 04:59:24;;;;;;;1.43;1.00;;;;;;;18.99;56.09;101576.25;4938144;28;97045;-50
2022/07/16 05:01:50;;;;;;;1.10;1.00;;;;;;;19.01;56.14;101582.81;4937736;28;97382;-50
2022/07/16 05:04:15;;;;;;;2.13;0.77;;;;;;;19.02;56.51;101584.31;4939216;28;97290;-49
2022/07/16 05:06:40;;;;;;;1.10;1.00;;;;;;;19.05;56.05;101597.19;4937038;28;97109;-50
2022/07/16 05:09:06;;;;;;;3.00;1.10;;;;;;;19.09;56.09;101594.84;4938755;28;97139;-50
2022/07/16 05:11:31;;;;;;;1.03;0.93;;;;;;;19.09;56.37;101596.91;4935395;28;97128;-50
2022/07/16 05:13:57;;;;;;;1.53;0.90;;;;;;;19.09;56.47;101600.44;4934057;28;96925;-48
2022/07/16 05:16:23;;;;;;;1.70;0.70;;;;;;;19.07;56.57;101597.41;4939331;28;97393;-49
2022/07/16 05:18:49;;;;;;;1.83;0.97;;;;;;;19.08;56.81;101601.72;4935788;28;97907;-50
2022/07/16 05:21:15;;;;;;;2.30;0.70;;;;;;;19.13;56.79;101592.50;4940388;28;97226;-50
2022/07/16 05:23:41;;;;;;;1.43;0.80;;;;;;;19.18;56.85;101599.28;4940425;28;97020;-49
2022/07/16 05:26:06;;;;;;;0.90;0.73;;;;;;;19.20;56.99;101602.28;4939687;28;97959;-49
2022/07/16 05:28:32;;;;;;;1.00;0.90;;;;;;;19.20;56.81;101605.84;4937507;28;97006;-49
2022/07/16 05:30:57;;;;;;;1.53;0.90;;;;;;;19.22;56.83;101608.13;4932939;28;97866;-50
2022/07/16 05:33:23;;;;;;;1.20;1.10;;;;;;;19.22;56.75;101600.50;4939051;28;97107;-50
2022/07/16 05:35:48;;;;;;;1.67;1.10;;;;;;;19.23;56.64;101601.25;4930205;28;97245;-50
2022/07/16 05:38:14;;;;;;;1.00;0.87;;;;;;;19.21;56.80;101610.16;4934161;28;98917;-49
2022/07/16 05:40:39;;;;;;;1.70;0.97;;;;;;;19.15;56.81;101620.66;4939131;28;97102;-50
2022/07/16 05:43:06;;;;;;;2.90;1.00;;;;;;;19.17;56.70;101623.66;4938118;28;97053;-49
2022/07/16 05:45:31;;;;;;;1.13;0.97;;;;;;;19.15;57.04;101623.44;4940519;28;97402;-47
2022/07/16 05:47:57;;;;;;;1.63;0.93;;;;;;;19.20;56.90;101628.16;4940218;28;98672;-49
2022/07/16 05:50:22;;;;;;;2.50;1.00;;;;;;;19.25;56.60;101634.97;4940605;28;97216;-47
2022/07/16 05:52:47;;;;;;;2.30;0.97;;;;;;;19.28;56.71;101637.47;4937446;28;96844;-49
2022/07/16 05:55:13;;;;;;;1.33;1.10;;;;;;;19.30;56.78;101640.47;4934821;28;97337;-48
2022/07/16 05:57:39;;;;;;;1.53;1.10;;;;;;;19.33;56.78;101644.25;4939475;28;97082;-48
2022/07/16 06:00:08;;;;;;;1.00;0.90;;;;;;;19.42;56.54;101644.63;4936558;28;97080;-50
2022/07/16 06:02:34;;;;;;;1.60;1.50;;;;;;;19.48;56.40;101650.13;4934913;28;96941;-50
2022/07/16 06:04:59;;;;;;;1.43;1.03;;;;;;;19.54;56.54;101648.00;4937175;28;98062;-49
2022/07/16 06:07:25;;;;;;;1.37;1.10;;;;;;;19.55;56.57;101643.19;4939884;28;98512;-50
2022/07/16 06:09:50;;;;;;;2.27;1.03;;;;;;;19.57;56.71;101652.50;4939017;28;97585;-49
2022/07/16 06:12:15;;;;;;;0.97;0.87;;;;;;;19.63;56.43;101652.44;4939140;28;97049;-49
2022/07/16 06:14:41;;;;;;;4.00;1.57;;;;;;;19.70;56.27;101651.81;4938388;28;97738;-49
2022/07/16 06:17:06;;;;;;;1.00;0.90;;;;;;;19.75;56.56;101651.72;4939030;28;97327;-49
2022/07/16 06:19:32;;;;;;;0.97;0.87;;;;;;;19.80;56.18;101655.72;4935900;28;97738;-49
2022/07/16 06:21:57;;;;;;;1.20;1.13;;;;;;;19.76;56.33;101652.50;4939215;28;97005;-50
2022/07/16 06:24:22;;;;;;;1.40;1.30;;;;;;;19.74;56.31;101655.06;4942033;28;97472;-49
2022/07/16 06:26:48;;;;;;;1.87;1.20;;;;;;;19.70;56.43;101660.22;4938161;28;97168;-49
2022/07/16 06:29:15;;;;;;;1.17;1.10;;;;;;;19.75;56.27;101660.09;4943378;28;97567;-49
2022/07/16 06:31:41;;;;;;;2.63;1.33;;;;;;;19.77;56.32;101660.31;4942635;28;97091;-49
2022/07/16 06:34:07;;;;;;;1.77;1.40;;;;;;;19.83;56.26;101660.97;4938781;28;96960;-49
2022/07/16 06:36:32;;;;;;;1.00;1.00;;;;;;;19.93;55.90;101656.50;4936192;28;97744;-50
2022/07/16 06:38:58;;;;;;;1.03;1.03;;;;;;;20.05;55.99;101657.09;4938083;28;96860;-49
2022/07/16 06:41:23;;;;;;;3.47;1.23;;;;;;;20.11;56.08;101658.50;4937126;28;97364;-49
2022/07/16 06:43:48;;;;;;;1.90;1.27;;;;;;;20.23;56.10;101656.25;4937348;28;97411;-49
2022/07/16 06:46:14;;;;;;;1.17;1.00;;;;;;;20.30;55.72;101660.47;4934933;28;97375;-49
2022/07/16 06:48:39;;;;;;;1.07;1.00;;;;;;;20.38;55.33;101659.28;4937931;28;97207;-50
2022/07/16 06:51:05;;;;;;;2.70;1.20;;;;;;;20.52;55.13;101660.06;4937285;28;97176;-48
2022/07/16 06:53:30;;;;;;;2.07;1.33;;;;;;;20.57;54.74;101668.34;4929267;28;97013;-50
2022/07/16 06:55:56;;;;;;;1.80;1.10;;;;;;;20.62;54.80;101669.53;4933806;28;96973;-49
2022/07/16 06:58:21;;;;;;;1.00;1.00;;;;;;;20.62;54.36;101664.66;4932165;28;97048;-49
2022/07/16 07:00:46;;;;;;;2.23;1.10;;;;;;;20.64;54.42;101670.47;4938120;28;97145;-50
2022/07/16 07:03:12;;;;;;;3.10;1.23;;;;;;;20.66;54.42;101675.56;4934862;28;102277;-50
2022/07/16 07:05:38;;;;;;;1.97;1.30;;;;;;;20.62;54.47;101684.25;4938749;28;96707;-50
2022/07/16 07:08:04;;;;;;;0.70;0.70;;;;;;;20.50;54.52;101680.16;4940414;28;97080;-50
2022/07/16 07:10:30;;;;;;;1.37;1.27;;;;;;;20.49;54.64;101689.06;4940619;28;97239;-50
2022/07/16 07:12:55;;;;;;;1.17;0.90;;;;;;;20.57;54.25;101679.53;4938433;28;97862;-49
2022/07/16 07:15:21;;;;;;;0.90;0.90;;;;;;;20.55;54.37;101684.16;4935240;28;97376;-50
2022/07/16 07:17:46;;;;;;;0.97;0.67;;;;;;;20.51;54.22;101681.66;4929134;28;96916;-49
2022/07/16 07:20:12;;;;;;;2.70;1.30;;;;;;;20.54;54.08;101680.59;4937499;28;96787;-50
2022/07/16 07:22:38;;;;;;;0.80;0.70;;;;;;;20.55;54.23;101687.69;4934374;28;97380;-50
2022/07/16 07:25:04;;;;;;;1.17;0.70;;;;;;;20.67;54.08;101688.97;4934167;28;101723;-49
2022/07/16 07:27:29;;;;;;;1.43;0.80;;;;;;;20.75;53.98;101675.84;4934310;28;97033;-47
2022/07/16 07:29:55;;;;;;;3.77;0.80;;;;;;;20.87;53.98;101679.19;4941097;28;96896;-50
2022/07/16 07:32:20;;;;;;;1.10;0.57;;;;;;;20.98;53.85;101689.38;4940254;28;97813;-48
2022/07/16 07:34:45;;;;;;;1.60;0.70;;;;;;;21.13;53.38;101690.38;4939468;28;97179;-49
2022/07/16 07:37:11;;;;;;;0.70;0.70;;;;;;;21.16;53.01;101694.13;4931616;28;97082;-49
2022/07/16 07:39:37;;;;;;;1.30;0.87;;;;;;;21.19;52.94;101698.63;4934675;28;96890;-49
2022/07/16 07:42:03;;;;;;;1.03;0.93;;;;;;;21.28;52.74;101698.94;4930541;28;96911;-49
2022/07/16 07:44:28;;;;;;;0.90;0.80;;;;;;;21.28;52.67;101698.19;4933647;28;97201;-49
2022/07/16 07:46:53;;;;;;;1.40;0.80;;;;;;;21.25;52.78;101699.28;4934198;28;96894;-48
2022/07/16 07:49:19;;;;;;;1.87;0.77;;;;;;;21.25;52.82;101704.88;4932947;28;97412;-50
2022/07/16 07:51:44;;;;;;;6.00;1.03;;;;;;;21.30;52.60;101718.00;4935157;28;97204;-50
2022/07/16 07:54:09;;;;;;;0.70;0.60;;;;;;;21.41;52.21;101721.31;4935200;28;96831;-49
2022/07/16 07:56:35;;;;;;;1.33;0.73;;;;;;;21.44;52.05;101731.44;4938699;28;97003;-49
2022/07/16 07:59:00;;;;;;;3.60;0.90;;;;;;;21.27;51.80;101744.28;4932885;28;96985;-49
2022/07/16 08:01:26;;;;;;;1.10;0.70;;;;;;;21.05;51.63;101753.13;4935255;28;96865;-50
2022/07/16 08:03:51;;;;;;;1.90;0.80;;;;;;;20.83;51.62;101751.50;4931353;28;97340;-50
2022/07/16 08:06:16;;;;;;;1.10;0.90;;;;;;;20.74;51.75;101749.88;4933819;28;96817;-53
2022/07/16 08:08:42;;;;;;;1.30;0.50;;;;;;;20.74;51.39;101746.31;4933174;28;97268;-50
2022/07/16 08:11:08;;;;;;;1.00;0.60;;;;;;;20.75;51.41;101751.38;4932284;28;105775;-50
2022/07/16 08:13:33;;;;;;;0.80;0.73;;;;;;;20.82;51.41;101749.97;4930761;28;97033;-50
2022/07/16 08:15:58;;;;;;;1.30;0.73;;;;;;;20.87;51.26;101755.47;4935126;28;96931;-50
2022/07/16 08:18:24;;;;;;;0.80;0.50;;;;;;;20.97;51.13;101760.66;4934269;28;97423;-49
2022/07/16 08:20:49;;;;;;;1.23;0.77;;;;;;;20.95;50.93;101761.16;4934835;28;97663;-50
2022/07/16 08:25:44;;;;;;;1.70;0.73;;;;;;;20.93;50.96;101767.31;4933413;28;97460;-50
2022/07/16 08:26:00;;;;;;;1.57;0.70;;;;;;;20.86;50.62;101753.97;4933474;28;97126;-51
2022/07/16 08:28:25;;;;;;;3.30;0.73;;;;;;;20.93;50.79;101769.34;4931039;28;103519;-50
2022/07/16 08:30:50;;;;;;;1.23;0.70;;;;;;;21.02;50.58;101768.16;4931858;28;97616;-50
2022/07/16 08:33:16;;;;;;;3.60;0.70;;;;;;;21.17;50.46;101771.97;4932963;28;97531;-49
2022/07/16 08:35:41;;;;;;;1.90;0.60;;;;;;;21.38;50.21;101766.44;4938716;28;97182;-49
2022/07/16 08:38:06;;;;;;;1.60;0.60;;;;;;;21.49;49.67;101769.00;4933755;28;96738;-50
2022/07/16 08:40:33;;;;;;;1.23;0.90;;;;;;;21.68;49.63;101783.59;4937221;28;106915;-48
2022/07/16 08:42:59;;;;;;;0.77;0.70;;;;;;;21.78;49.36;101781.84;4932234;28;98366;-50
2022/07/16 08:45:24;;;;;;;1.70;0.90;;;;;;;22.00;49.15;101770.16;4935869;28;96920;-50
2022/07/16 08:47:51;;;;;;;2.27;1.23;;;;;;;22.19;48.58;101781.19;4933779;28;96785;-49
2022/07/16 08:50:17;;;;;;;1.47;0.80;;;;;;;22.41;48.43;101777.06;4937204;28;96788;-49
2022/07/16 08:52:46;;;;;;;1.93;0.63;;;;;;;22.49;47.87;101789.09;4930607;28;97570;-49
2022/07/16 08:55:11;;;;;;;2.70;1.20;;;;;;;22.36;47.94;101796.31;4940111;28;96852;-51
2022/07/16 08:57:38;;;;;;;1.60;0.77;;;;;;;22.29;48.00;101782.19;4937521;28;97277;-48
2022/07/16 09:00:07;;;;;;;1.20;0.73;;;;;;;22.26;48.06;101800.09;4971201;22;97454;-51
2022/07/16 09:02:33;;;;;;;1.33;0.60;;;;;;;22.17;48.08;101801.34;4961295;28;96776;-50
2022/07/16 09:05:00;;;;;;;2.33;1.30;;;;;;;22.09;48.07;101808.16;4967133;28;97381;-51
2022/07/16 09:07:25;;;;;;;3.53;0.70;;;;;;;22.02;48.00;101812.41;4966720;28;97127;-51
2022/07/16 09:09:51;;;;;;;1.17;0.70;;;;;;;22.04;47.82;101809.81;4962257;28;96907;-49
2022/07/16 09:12:32;;;;;;;1.43;1.03;;;;;;;22.11;47.36;101814.75;4960278;28;97439;-51
2022/07/16 09:14:57;;;;;;;2.23;0.97;;;;;;;22.22;47.53;101822.88;4959879;28;96882;-50
2022/07/16 09:17:23;;;;;;;1.37;0.83;;;;;;;22.25;47.35;101821.81;4959058;28;96800;-52
2022/07/16 09:19:48;;;;;;;4.83;1.03;;;;;;;22.40;47.08;101826.78;4961076;28;104199;-50
2022/07/16 09:22:15;;;;;;;2.83;0.80;;;;;;;22.68;46.74;101821.28;4956638;28;97754;-51
2022/07/16 09:24:42;;;;;;;3.83;0.80;;;;;;;22.88;45.82;101830.97;4951919;28;96944;-51
2022/07/16 09:27:21;;;;;;;3.30;0.73;;;;;;;22.73;43.97;101836.47;4962141;28;96962;-50
2022/07/16 09:29:48;;;;;;;2.87;0.63;;;;;;;22.58;45.64;101841.91;4959953;28;97290;-49
2022/07/16 09:32:30;;;;;;;1.47;0.60;;;;;;;22.69;44.26;101838.88;4961730;28;97277;-51
2022/07/16 09:35:07;;;;;;;0.87;0.70;;;;;;;22.83;43.31;101840.25;4957940;28;97180;-51
2022/07/16 09:37:59;;;;;;;0.93;0.70;;;;;;;23.03;41.53;101837.44;4962584;28;97040;-51
2022/07/16 09:40:29;;;;;;;2.63;0.93;;;;;;;23.28;42.75;101849.00;4954742;28;102273;-50
2022/07/16 09:42:55;;;;;;;1.97;0.90;;;;;;;23.47;43.31;101834.72;4961162;28;96825;-50
2022/07/16 09:45:21;;;;;;;1.90;0.60;;;;;;;23.44;43.02;101844.25;4963439;28;97465;-51
2022/07/16 09:47:47;;;;;;;3.50;0.70;;;;;;;23.52;41.97;101848.63;4969580;28;97373;-52
2022/07/16 09:50:12;;;;;;;1.07;0.50;;;;;;;23.69;42.00;101854.50;4963330;28;97477;-51
2022/07/16 09:52:38;;;;;;;1.53;0.70;;;;;;;23.92;41.76;101856.66;4958629;28;96782;-51
2022/07/16 09:55:04;;;;;;;1.10;0.60;;;;;;;24.12;41.40;101850.16;4958701;28;97274;-49
2022/07/16 09:57:30;;;;;;;0.60;0.40;;;;;;;24.16;40.93;101856.16;4957458;28;96847;-51
2022/07/16 09:59:57;;;;;;;1.43;0.77;;;;;;;24.14;40.94;101853.16;4961276;28;97541;-55
2022/07/16 10:02:23;;;;;;;1.10;0.50;;;;;;;24.18;40.75;101867.63;4965490;28;96945;-51
2022/07/16 10:04:48;;;;;;;1.63;0.60;;;;;;;24.07;40.46;101859.53;4959773;28;96866;-50
2022/07/16 10:07:14;;;;;;;2.00;0.80;;;;;;;23.87;40.49;101860.38;4967426;28;96713;-51
2022/07/16 10:09:39;;;;;;;2.40;1.00;;;;;;;23.90;40.49;101876.09;4975648;28;98529;-49
2022/07/16 10:12:11;;;;;;;3.00;0.70;;;;;;;24.06;40.00;101878.44;4966867;28;97082;-51
2022/07/16 10:14:40;;;;;;;0.70;0.57;;;;;;;24.03;40.40;101887.97;4955159;28;97256;-51
2022/07/16 10:17:29;;;;;;;1.07;0.73;;;;;;;23.83;39.69;101892.38;4958106;28;96783;-51
2022/07/16 10:20:04;;;;;;;1.90;0.70;;;;;;;23.73;40.29;101890.66;4954666;28;100662;-49
2022/07/16 10:22:33;;;;;;;2.10;0.83;;;;;;;23.83;40.40;101894.44;4962568;28;97184;-51
2022/07/16 10:24:59;;;;;;;1.67;0.83;;;;;;;24.05;40.77;101888.19;4962704;28;97061;-48
2022/07/16 10:27:35;;;;;;;1.77;0.90;;;;;;;24.20;40.14;101891.03;4961299;28;97028;-51
2022/07/16 10:30:10;;;;;;;1.37;0.50;;;;;;;24.37;38.85;101896.16;4956269;28;96733;-51
2022/07/16 10:33:07;;;;;;;1.67;0.60;;;;;;;24.31;38.42;101901.22;4952894;28;97109;-50
2022/07/16 10:35:44;;;;;;;0.73;0.50;;;;;;;24.16;39.78;101901.16;4953733;28;96925;-51
2022/07/16 10:38:18;;;;;;;1.27;0.60;;;;;;;24.08;39.25;101918.00;4956441;28;96970;-51
2022/07/16 10:40:45;;;;;;;3.20;0.67;;;;;;;24.07;40.19;101915.75;4957678;28;97398;-51
2022/07/16 10:43:19;;;;;;;1.20;0.70;;;;;;;24.25;39.81;101909.81;4961094;28;97027;-51
2022/07/16 10:45:49;;;;;;;0.90;0.40;;;;;;;24.44;38.97;101920.75;4961635;28;96860;-51
2022/07/16 10:48:15;;;;;;;1.57;1.00;;;;;;;24.54;39.18;101919.63;4964609;28;97227;-51
2022/07/16 10:51:00;;;;;;;2.87;0.80;;;;;;;24.56;39.25;101916.25;4962764;28;98722;-51
2022/07/16 10:53:25;;;;;;;1.20;0.80;;;;;;;24.51;38.77;101917.94;4960096;28;96910;-51
2022/07/16 10:55:51;;;;;;;2.30;0.90;;;;;;;24.47;38.58;101926.00;4953151;28;96946;-50
2022/07/16 10:58:22;;;;;;;1.90;0.60;;;;;;;24.33;38.78;101924.63;4954411;28;97336;-52
2022/07/16 11:00:47;;;;;;;2.20;0.70;;;;;;;24.15;38.69;101934.16;4956519;28;96833;-51
2022/07/16 11:03:14;;;;;;;1.17;0.60;;;;;;;23.97;38.84;101940.81;4958017;28;98524;-51
2022/07/16 11:05:41;;;;;;;1.30;0.60;;;;;;;23.86;38.18;101952.38;4956054;28;96981;-50
2022/07/16 11:08:09;;;;;;;1.40;0.50;;;;;;;23.78;39.37;101949.53;4959100;28;97118;-51
2022/07/16 11:10:36;;;;;;;1.70;0.73;;;;;;;23.89;39.28;101944.91;4960466;28;97487;-50
2022/07/16 11:13:09;;;;;;;3.53;0.90;;;;;;;24.02;39.48;101939.13;4959571;28;97003;-51
2022/07/16 11:15:34;;;;;;;2.07;0.90;;;;;;;24.26;39.41;101947.91;4952217;28;96873;-50
2022/07/16 11:18:00;;;;;;;1.23;1.07;;;;;;;24.34;39.11;101948.66;4961501;28;97280;-51
2022/07/16 11:20:35;;;;;;;1.57;0.70;;;;;;;24.36;38.05;101948.84;4954363;28;98053;-51
2022/07/16 11:23:05;;;;;;;2.87;0.93;;;;;;;24.48;38.79;101943.63;4958098;28;100687;-51